Terminal Aerodrome Forecast
Issued by NWS Twin Cities, MN

Home | Current Version | Previous Version | Text Only | Print | Product List | Glossary Off
Versions: 1 2 3 4 5 6 7 8 9 10 11 12 13 14 15 16 17 18

043
FTUS43 KMPX 241735
TAFEAU
TAF
KEAU 241735Z 2418/2518 23004KT P6SM SCT030 BKN050
     FM250000 12003KT P6SM BKN150
     FM251600 12010KT 5SM -SHRA OVC050=

USA.gov is the U.S. government's official web portal to all federal, state and local government web resources and services.